sensor_id;sensor_type;location;lat;lon;timestamp;temperature;humidity
63202;DHT22;49296;48.188;11.566;2022-09-27T00:01:14;14.05;60.52
63202;DHT22;49296;48.188;11.566;2022-09-27T00:03:42;14.08;60.76
63202;DHT22;49296;48.188;11.566;2022-09-27T00:06:10;14.07;60.92
63202;DHT22;49296;48.188;11.566;2022-09-27T00:08:38;14.04;61.01
63202;DHT22;49296;48.188;11.566;2022-09-27T00:11:05;13.97;61.33
63202;DHT22;49296;48.188;11.566;2022-09-27T00:13:33;13.60;61.72
63202;DHT22;49296;48.188;11.566;2022-09-27T00:16:00;13.69;61.86
63202;DHT22;49296;48.188;11.566;2022-09-27T00:18:29;13.76;62.14
63202;DHT22;49296;48.188;11.566;2022-09-27T00:21:03;13.71;62.21
63202;DHT22;49296;48.188;11.566;2022-09-27T00:23:31;13.77;62.28
63202;DHT22;49296;48.188;11.566;2022-09-27T00:25:58;13.79;62.45
63202;DHT22;49296;48.188;11.566;2022-09-27T00:28:24;13.63;62.86
63202;DHT22;49296;48.188;11.566;2022-09-27T00:30:51;13.74;63.26
63202;DHT22;49296;48.188;11.566;2022-09-27T00:33:18;13.48;64.22
63202;DHT22;49296;48.188;11.566;2022-09-27T00:35:45;13.41;64.90
63202;DHT22;49296;48.188;11.566;2022-09-27T00:38:13;13.42;65.15
63202;DHT22;49296;48.188;11.566;2022-09-27T00:40:39;13.19;65.99
63202;DHT22;49296;48.188;11.566;2022-09-27T00:43:10;13.15;66.58
63202;DHT22;49296;48.188;11.566;2022-09-27T00:45:39;13.04;67.38
63202;DHT22;49296;48.188;11.566;2022-09-27T00:48:05;13.11;67.65
63202;DHT22;49296;48.188;11.566;2022-09-27T00:50:33;12.80;68.43
63202;DHT22;49296;48.188;11.566;2022-09-27T00:53:03;12.75;68.78
63202;DHT22;49296;48.188;11.566;2022-09-27T00:55:35;12.79;68.73
63202;DHT22;49296;48.188;11.566;2022-09-27T00:58:02;12.63;69.29
63202;DHT22;49296;48.188;11.566;2022-09-27T01:00:30;12.59;69.77
63202;DHT22;49296;48.188;11.566;2022-09-27T01:02:56;12.66;69.53
63202;DHT22;49296;48.188;11.566;2022-09-27T01:05:23;12.63;69.45
63202;DHT22;49296;48.188;11.566;2022-09-27T01:07:51;12.55;69.93
63202;DHT22;49296;48.188;11.566;2022-09-27T01:10:21;12.48;70.36
63202;DHT22;49296;48.188;11.566;2022-09-27T01:12:54;12.34;70.95
63202;DHT22;49296;48.188;11.566;2022-09-27T01:15:24;12.38;71.05
63202;DHT22;49296;48.188;11.566;2022-09-27T01:17:58;12.39;71.26
63202;DHT22;49296;48.188;11.566;2022-09-27T01:20:40;12.46;70.94
63202;DHT22;49296;48.188;11.566;2022-09-27T01:23:15;12.44;70.94
63202;DHT22;49296;48.188;11.566;2022-09-27T01:25:47;12.53;71.20
63202;DHT22;49296;48.188;11.566;2022-09-27T01:28:22;12.55;71.02
63202;DHT22;49296;48.188;11.566;2022-09-27T01:30:57;12.49;71.28
63202;DHT22;49296;48.188;11.566;2022-09-27T01:33:39;12.34;71.75
63202;DHT22;49296;48.188;11.566;2022-09-27T01:36:13;12.32;71.98
63202;DHT22;49296;48.188;11.566;2022-09-27T01:38:41;12.37;71.11
63202;DHT22;49296;48.188;11.566;2022-09-27T01:41:12;12.25;71.85
63202;DHT22;49296;48.188;11.566;2022-09-27T01:43:41;12.28;72.30
63202;DHT22;49296;48.188;11.566;2022-09-27T01:46:12;12.17;72.81
63202;DHT22;49296;48.188;11.566;2022-09-27T01:48:41;11.98;73.88
63202;DHT22;49296;48.188;11.566;2022-09-27T01:51:10;11.98;73.98
63202;DHT22;49296;48.188;11.566;2022-09-27T01:53:38;11.86;74.49
63202;DHT22;49296;48.188;11.566;2022-09-27T01:56:06;11.83;74.68
63202;DHT22;49296;48.188;11.566;2022-09-27T01:58:36;11.72;75.36
63202;DHT22;49296;48.188;11.566;2022-09-27T02:01:04;11.73;75.66
63202;DHT22;49296;48.188;11.566;2022-09-27T02:03:32;11.57;76.23
63202;DHT22;49296;48.188;11.566;2022-09-27T02:06:01;11.59;76.27
63202;DHT22;49296;48.188;11.566;2022-09-27T02:08:30;11.57;76.63
63202;DHT22;49296;48.188;11.566;2022-09-27T02:10:59;11.57;76.40
63202;DHT22;49296;48.188;11.566;2022-09-27T02:13:30;11.54;76.89
63202;DHT22;49296;48.188;11.566;2022-09-27T02:16:01;11.52;76.72
63202;DHT22;49296;48.188;11.566;2022-09-27T02:18:33;11.57;77.20
63202;DHT22;49296;48.188;11.566;2022-09-27T02:21:01;11.45;77.56
63202;DHT22;49296;48.188;11.566;2022-09-27T02:23:32;11.45;77.79
63202;DHT22;49296;48.188;11.566;2022-09-27T02:26:02;11.48;78.10
63202;DHT22;49296;48.188;11.566;2022-09-27T02:28:31;11.39;78.05
63202;DHT22;49296;48.188;11.566;2022-09-27T02:31:00;11.36;78.46
63202;DHT22;49296;48.188;11.566;2022-09-27T02:33:28;11.45;78.50
63202;DHT22;49296;48.188;11.566;2022-09-27T02:35:57;11.42;78.61
63202;DHT22;49296;48.188;11.566;2022-09-27T02:38:24;11.34;79.05
63202;DHT22;49296;48.188;11.566;2022-09-27T02:40:51;11.52;78.85
63202;DHT22;49296;48.188;11.566;2022-09-27T02:43:18;11.57;78.42
63202;DHT22;49296;48.188;11.566;2022-09-27T02:45:49;11.72;78.06
63202;DHT22;49296;48.188;11.566;2022-09-27T02:48:20;11.75;77.68
63202;DHT22;49296;48.188;11.566;2022-09-27T02:50:58;11.55;78.35
63202;DHT22;49296;48.188;11.566;2022-09-27T02:53:34;11.54;78.20
63202;DHT22;49296;48.188;11.566;2022-09-27T02:56:06;11.48;78.62
63202;DHT22;49296;48.188;11.566;2022-09-27T02:58:38;11.62;78.46
63202;DHT22;49296;48.188;11.566;2022-09-27T03:01:10;11.72;78.23
63202;DHT22;49296;48.188;11.566;2022-09-27T03:03:38;11.73;78.12
63202;DHT22;49296;48.188;11.566;2022-09-27T03:06:09;11.73;77.90
63202;DHT22;49296;48.188;11.566;2022-09-27T03:08:36;11.62;78.20
63202;DHT22;49296;48.188;11.566;2022-09-27T03:11:03;11.69;78.34
63202;DHT22;49296;48.188;11.566;2022-09-27T03:13:30;11.79;77.66
63202;DHT22;49296;48.188;11.566;2022-09-27T03:15:57;11.86;77.41
63202;DHT22;49296;48.188;11.566;2022-09-27T03:18:24;11.77;77.69
63202;DHT22;49296;48.188;11.566;2022-09-27T03:20:51;11.75;77.82
63202;DHT22;49296;48.188;11.566;2022-09-27T03:23:19;11.86;77.27
63202;DHT22;49296;48.188;11.566;2022-09-27T03:25:45;11.90;77.25
63202;DHT22;49296;48.188;11.566;2022-09-27T03:28:12;11.80;77.30
63202;DHT22;49296;48.188;11.566;2022-09-27T03:30:38;11.84;77.24
63202;DHT22;49296;48.188;11.566;2022-09-27T03:33:06;12.04;76.93
63202;DHT22;49296;48.188;11.566;2022-09-27T03:35:33;12.14;76.37
63202;DHT22;49296;48.188;11.566;2022-09-27T03:37:59;12.11;76.50
63202;DHT22;49296;48.188;11.566;2022-09-27T03:40:27;12.08;76.32
63202;DHT22;49296;48.188;11.566;2022-09-27T03:42:54;12.00;76.29
63202;DHT22;49296;48.188;11.566;2022-09-27T03:45:21;12.04;76.48
63202;DHT22;49296;48.188;11.566;2022-09-27T03:47:47;12.07;76.80
63202;DHT22;49296;48.188;11.566;2022-09-27T03:50:14;12.05;76.37
63202;DHT22;49296;48.188;11.566;2022-09-27T03:52:41;12.04;76.46
63202;DHT22;49296;48.188;11.566;2022-09-27T03:55:08;12.07;76.35
63202;DHT22;49296;48.188;11.566;2022-09-27T03:57:36;11.84;76.71
63202;DHT22;49296;48.188;11.566;2022-09-27T04:00:02;11.90;76.94
63202;DHT22;49296;48.188;11.566;2022-09-27T04:02:29;11.76;76.27
63202;DHT22;49296;48.188;11.566;2022-09-27T04:04:56;11.69;77.07
63202;DHT22;49296;48.188;11.566;2022-09-27T04:07:23;11.51;77.38
63202;DHT22;49296;48.188;11.566;2022-09-27T04:09:49;11.43;77.84
63202;DHT22;49296;48.188;11.566;2022-09-27T04:12:16;11.32;78.12
63202;DHT22;49296;48.188;11.566;2022-09-27T04:14:44;11.42;77.58
63202;DHT22;49296;48.188;11.566;2022-09-27T04:17:10;11.21;78.43
63202;DHT22;49296;48.188;11.566;2022-09-27T04:19:37;11.27;78.05
63202;DHT22;49296;48.188;11.566;2022-09-27T04:22:04;11.35;78.25
63202;DHT22;49296;48.188;11.566;2022-09-27T04:24:30;11.35;78.42
63202;DHT22;49296;48.188;11.566;2022-09-27T04:26:58;11.42;78.24
63202;DHT22;49296;48.188;11.566;2022-09-27T04:29:24;11.18;79.12
63202;DHT22;49296;48.188;11.566;2022-09-27T04:31:52;11.21;78.61
63202;DHT22;49296;48.188;11.566;2022-09-27T04:34:21;11.18;78.07
63202;DHT22;49296;48.188;11.566;2022-09-27T04:37:08;11.15;78.41
63202;DHT22;49296;48.188;11.566;2022-09-27T04:39:35;11.10;78.37
63202;DHT22;49296;48.188;11.566;2022-09-27T04:42:03;11.17;78.07
63202;DHT22;49296;48.188;11.566;2022-09-27T04:44:30;11.08;78.10
63202;DHT22;49296;48.188;11.566;2022-09-27T04:46:58;11.01;78.60
63202;DHT22;49296;48.188;11.566;2022-09-27T04:49:24;11.03;78.29
63202;DHT22;49296;48.188;11.566;2022-09-27T04:51:51;10.96;79.04
63202;DHT22;49296;48.188;11.566;2022-09-27T04:54:17;10.95;78.71
63202;DHT22;49296;48.188;11.566;2022-09-27T04:56:44;10.95;78.66
63202;DHT22;49296;48.188;11.566;2022-09-27T04:59:12;10.99;78.52
63202;DHT22;49296;48.188;11.566;2022-09-27T05:01:39;10.99;78.12
63202;DHT22;49296;48.188;11.566;2022-09-27T05:04:07;10.95;78.23
63202;DHT22;49296;48.188;11.566;2022-09-27T05:06:33;10.95;78.01
63202;DHT22;49296;48.188;11.566;2022-09-27T05:09:00;11.01;78.09
63202;DHT22;49296;48.188;11.566;2022-09-27T05:11:27;11.03;77.89
63202;DHT22;49296;48.188;11.566;2022-09-27T05:13:53;11.14;77.91
63202;DHT22;49296;48.188;11.566;2022-09-27T05:16:20;11.04;78.17
63202;DHT22;49296;48.188;11.566;2022-09-27T05:18:46;11.08;78.21
63202;DHT22;49296;48.188;11.566;2022-09-27T05:21:14;11.11;78.28
63202;DHT22;49296;48.188;11.566;2022-09-27T05:23:40;11.15;78.15
63202;DHT22;49296;48.188;11.566;2022-09-27T05:26:07;11.25;78.05
63202;DHT22;49296;48.188;11.566;2022-09-27T05:28:33;11.07;78.53
63202;DHT22;49296;48.188;11.566;2022-09-27T05:31:00;11.03;78.63
63202;DHT22;49296;48.188;11.566;2022-09-27T05:33:26;11.10;78.30
63202;DHT22;49296;48.188;11.566;2022-09-27T05:35:53;11.04;78.79
63202;DHT22;49296;48.188;11.566;2022-09-27T05:38:21;11.03;77.92
63202;DHT22;49296;48.188;11.566;2022-09-27T05:40:48;10.97;77.72
63202;DHT22;49296;48.188;11.566;2022-09-27T05:43:15;11.01;77.67
63202;DHT22;49296;48.188;11.566;2022-09-27T05:45:42;10.84;77.57
63202;DHT22;49296;48.188;11.566;2022-09-27T05:48:09;11.04;76.29
63202;DHT22;49296;48.188;11.566;2022-09-27T05:50:36;11.00;76.34
63202;DHT22;49296;48.188;11.566;2022-09-27T05:53:03;10.97;76.45
63202;DHT22;49296;48.188;11.566;2022-09-27T05:55:31;10.80;76.57
63202;DHT22;49296;48.188;11.566;2022-09-27T05:57:58;10.92;76.47
63202;DHT22;49296;48.188;11.566;2022-09-27T06:00:25;10.89;76.39
63202;DHT22;49296;48.188;11.566;2022-09-27T06:02:52;10.73;77.02
63202;DHT22;49296;48.188;11.566;2022-09-27T06:05:20;10.72;77.36
63202;DHT22;49296;48.188;11.566;2022-09-27T06:07:46;10.89;76.16
63202;DHT22;49296;48.188;11.566;2022-09-27T06:10:14;10.95;76.16
63202;DHT22;49296;48.188;11.566;2022-09-27T06:12:42;10.77;76.73
63202;DHT22;49296;48.188;11.566;2022-09-27T06:15:09;10.73;76.28
63202;DHT22;49296;48.188;11.566;2022-09-27T06:17:35;10.56;76.84
63202;DHT22;49296;48.188;11.566;2022-09-27T06:20:02;10.66;76.66
63202;DHT22;49296;48.188;11.566;2022-09-27T06:22:29;10.76;76.72
63202;DHT22;49296;48.188;11.566;2022-09-27T06:24:55;10.66;76.81
63202;DHT22;49296;48.188;11.566;2022-09-27T06:27:22;10.72;76.23
63202;DHT22;49296;48.188;11.566;2022-09-27T06:29:51;10.83;76.07
63202;DHT22;49296;48.188;11.566;2022-09-27T06:32:18;10.70;76.42
63202;DHT22;49296;48.188;11.566;2022-09-27T06:34:44;10.76;75.92
63202;DHT22;49296;48.188;11.566;2022-09-27T06:37:11;10.75;75.74
63202;DHT22;49296;48.188;11.566;2022-09-27T06:39:37;10.75;75.97
63202;DHT22;49296;48.188;11.566;2022-09-27T06:42:04;10.76;76.19
63202;DHT22;49296;48.188;11.566;2022-09-27T06:44:30;10.83;76.03
63202;DHT22;49296;48.188;11.566;2022-09-27T06:46:58;11.00;75.65
63202;DHT22;49296;48.188;11.566;2022-09-27T06:49:25;10.97;75.54
63202;DHT22;49296;48.188;11.566;2022-09-27T06:51:52;10.99;75.18
63202;DHT22;49296;48.188;11.566;2022-09-27T06:54:18;10.97;74.60
63202;DHT22;49296;48.188;11.566;2022-09-27T06:56:46;10.96;74.64
63202;DHT22;49296;48.188;11.566;2022-09-27T06:59:12;11.00;74.61
63202;DHT22;49296;48.188;11.566;2022-09-27T07:02:12;11.17;74.37
63202;DHT22;49296;48.188;11.566;2022-09-27T07:04:39;11.13;73.82
63202;DHT22;49296;48.188;11.566;2022-09-27T07:07:05;11.18;73.27
63202;DHT22;49296;48.188;11.566;2022-09-27T07:09:32;11.31;71.98
63202;DHT22;49296;48.188;11.566;2022-09-27T07:11:58;11.31;72.22
63202;DHT22;49296;48.188;11.566;2022-09-27T07:14:24;11.39;72.14
63202;DHT22;49296;48.188;11.566;2022-09-27T07:16:51;11.39;72.24
63202;DHT22;49296;48.188;11.566;2022-09-27T07:19:19;11.41;71.49
63202;DHT22;49296;48.188;11.566;2022-09-27T07:21:46;11.32;71.40
63202;DHT22;49296;48.188;11.566;2022-09-27T07:24:12;11.41;71.34
63202;DHT22;49296;48.188;11.566;2022-09-27T07:26:39;11.21;71.23
63202;DHT22;49296;48.188;11.566;2022-09-27T07:29:05;11.32;71.22
63202;DHT22;49296;48.188;11.566;2022-09-27T07:31:32;11.39;70.99
63202;DHT22;49296;48.188;11.566;2022-09-27T07:33:58;11.14;71.18
63202;DHT22;49296;48.188;11.566;2022-09-27T07:36:26;11.13;71.89
63202;DHT22;49296;48.188;11.566;2022-09-27T07:38:57;11.20;71.81
63202;DHT22;49296;48.188;11.566;2022-09-27T07:41:24;11.32;71.89
63202;DHT22;49296;48.188;11.566;2022-09-27T07:43:50;11.17;72.45
63202;DHT22;49296;48.188;11.566;2022-09-27T07:46:17;11.35;72.27
63202;DHT22;49296;48.188;11.566;2022-09-27T07:48:44;11.48;72.48
63202;DHT22;49296;48.188;11.566;2022-09-27T07:51:11;11.48;71.59
63202;DHT22;49296;48.188;11.566;2022-09-27T07:53:39;11.54;71.61
63202;DHT22;49296;48.188;11.566;2022-09-27T07:56:05;11.57;70.93
63202;DHT22;49296;48.188;11.566;2022-09-27T07:58:32;11.43;71.09
63202;DHT22;49296;48.188;11.566;2022-09-27T08:00:58;11.65;71.11
63202;DHT22;49296;48.188;11.566;2022-09-27T08:03:26;11.77;70.47
63202;DHT22;49296;48.188;11.566;2022-09-27T08:05:53;11.57;71.65
63202;DHT22;49296;48.188;11.566;2022-09-27T08:08:19;11.03;74.49
63202;DHT22;49296;48.188;11.566;2022-09-27T08:10:47;9.76;79.32
63202;DHT22;49296;48.188;11.566;2022-09-27T08:13:14;9.63;80.53
63202;DHT22;49296;48.188;11.566;2022-09-27T08:15:44;9.51;80.89
63202;DHT22;49296;48.188;11.566;2022-09-27T08:18:10;9.51;80.42
63202;DHT22;49296;48.188;11.566;2022-09-27T08:20:37;9.79;82.56
63202;DHT22;49296;48.188;11.566;2022-09-27T08:23:04;9.79;80.97
63202;DHT22;49296;48.188;11.566;2022-09-27T08:25:30;9.85;79.97
63202;DHT22;49296;48.188;11.566;2022-09-27T08:27:58;9.85;79.49
63202;DHT22;49296;48.188;11.566;2022-09-27T08:30:25;10.00;80.27
63202;DHT22;49296;48.188;11.566;2022-09-27T08:32:56;10.09;80.32
63202;DHT22;49296;48.188;11.566;2022-09-27T08:35:22;10.03;80.16
63202;DHT22;49296;48.188;11.566;2022-09-27T08:37:52;9.92;80.01
63202;DHT22;49296;48.188;11.566;2022-09-27T08:40:19;10.09;80.14
63202;DHT22;49296;48.188;11.566;2022-09-27T08:42:49;10.25;79.74
63202;DHT22;49296;48.188;11.566;2022-09-27T08:45:25;10.04;79.37
63202;DHT22;49296;48.188;11.566;2022-09-27T08:47:55;10.20;79.02
63202;DHT22;49296;48.188;11.566;2022-09-27T08:50:24;10.31;77.65
63202;DHT22;49296;48.188;11.566;2022-09-27T08:52:52;10.11;78.25
63202;DHT22;49296;48.188;11.566;2022-09-27T08:55:23;10.40;78.91
63202;DHT22;49296;48.188;11.566;2022-09-27T08:57:52;10.44;78.36
63202;DHT22;49296;48.188;11.566;2022-09-27T09:00:19;10.53;77.62
63202;DHT22;49296;48.188;11.566;2022-09-27T09:02:47;10.68;77.82
63202;DHT22;49296;48.188;11.566;2022-09-27T09:05:15;10.70;77.16
63202;DHT22;49296;48.188;11.566;2022-09-27T09:07:47;10.65;76.24
63202;DHT22;49296;48.188;11.566;2022-09-27T09:10:20;10.31;76.10
63202;DHT22;49296;48.188;11.566;2022-09-27T09:13:06;10.38;76.38
63202;DHT22;49296;48.188;11.566;2022-09-27T09:15:36;10.35;76.81
63202;DHT22;49296;48.188;11.566;2022-09-27T09:18:40;10.37;76.13
63202;DHT22;49296;48.188;11.566;2022-09-27T09:21:11;10.41;75.61
63202;DHT22;49296;48.188;11.566;2022-09-27T09:23:50;10.51;76.39
63202;DHT22;49296;48.188;11.566;2022-09-27T09:26:21;10.52;75.05
63202;DHT22;49296;48.188;11.566;2022-09-27T09:28:52;10.62;76.50
63202;DHT22;49296;48.188;11.566;2022-09-27T09:31:23;10.66;74.46
63202;DHT22;49296;48.188;11.566;2022-09-27T09:33:55;10.84;73.10
63202;DHT22;49296;48.188;11.566;2022-09-27T09:36:25;10.97;74.06
63202;DHT22;49296;48.188;11.566;2022-09-27T09:38:54;11.10;73.19
63202;DHT22;49296;48.188;11.566;2022-09-27T09:41:23;11.06;73.02
63202;DHT22;49296;48.188;11.566;2022-09-27T09:43:53;11.11;72.89
63202;DHT22;49296;48.188;11.566;2022-09-27T09:46:21;11.18;72.84
63202;DHT22;49296;48.188;11.566;2022-09-27T09:48:50;11.15;72.76
63202;DHT22;49296;48.188;11.566;2022-09-27T09:51:20;11.07;71.14
63202;DHT22;49296;48.188;11.566;2022-09-27T09:53:50;11.15;71.29
63202;DHT22;49296;48.188;11.566;2022-09-27T09:56:19;11.13;70.49
63202;DHT22;49296;48.188;11.566;2022-09-27T09:58:49;11.04;69.92
63202;DHT22;49296;48.188;11.566;2022-09-27T10:01:17;11.18;69.11
63202;DHT22;49296;48.188;11.566;2022-09-27T10:03:45;11.43;69.77
63202;DHT22;49296;48.188;11.566;2022-09-27T10:06:12;11.51;69.02
63202;DHT22;49296;48.188;11.566;2022-09-27T10:08:41;11.34;68.48
63202;DHT22;49296;48.188;11.566;2022-09-27T10:11:09;11.41;67.97
63202;DHT22;49296;48.188;11.566;2022-09-27T10:13:40;11.23;68.15
63202;DHT22;49296;48.188;11.566;2022-09-27T10:16:07;11.45;68.26
63202;DHT22;49296;48.188;11.566;2022-09-27T10:18:34;11.52;68.15
63202;DHT22;49296;48.188;11.566;2022-09-27T10:21:03;11.63;68.31
63202;DHT22;49296;48.188;11.566;2022-09-27T10:23:32;11.57;67.35
63202;DHT22;49296;48.188;11.566;2022-09-27T10:26:00;11.52;67.16
63202;DHT22;49296;48.188;11.566;2022-09-27T10:28:28;11.51;67.95
63202;DHT22;49296;48.188;11.566;2022-09-27T10:30:57;11.55;67.02
63202;DHT22;49296;48.188;11.566;2022-09-27T10:33:24;11.52;67.30
63202;DHT22;49296;48.188;11.566;2022-09-27T10:35:52;11.54;67.61
63202;DHT22;49296;48.188;11.566;2022-09-27T10:38:23;11.59;66.75
63202;DHT22;49296;48.188;11.566;2022-09-27T10:40:50;11.59;66.55
63202;DHT22;49296;48.188;11.566;2022-09-27T10:43:25;11.49;66.33
63202;DHT22;49296;48.188;11.566;2022-09-27T10:45:58;11.42;66.48
63202;DHT22;49296;48.188;11.566;2022-09-27T10:48:25;11.45;67.19
63202;DHT22;49296;48.188;11.566;2022-09-27T10:50:55;11.46;66.94
63202;DHT22;49296;48.188;11.566;2022-09-27T10:53:23;11.46;68.44
63202;DHT22;49296;48.188;11.566;2022-09-27T10:55:50;11.51;69.41
63202;DHT22;49296;48.188;11.566;2022-09-27T10:58:18;11.41;69.39
63202;DHT22;49296;48.188;11.566;2022-09-27T11:00:53;11.38;69.40
63202;DHT22;49296;48.188;11.566;2022-09-27T11:03:20;11.38;69.37
63202;DHT22;49296;48.188;11.566;2022-09-27T11:05:49;11.58;68.52
63202;DHT22;49296;48.188;11.566;2022-09-27T11:08:23;11.82;68.16
63202;DHT22;49296;48.188;11.566;2022-09-27T11:11:02;12.10;66.91
63202;DHT22;49296;48.188;11.566;2022-09-27T11:13:28;12.04;67.10
63202;DHT22;49296;48.188;11.566;2022-09-27T11:16:08;12.17;67.88
63202;DHT22;49296;48.188;11.566;2022-09-27T11:18:39;11.95;68.73
63202;DHT22;49296;48.188;11.566;2022-09-27T11:21:11;11.73;72.31
63202;DHT22;49296;48.188;11.566;2022-09-27T11:23:49;11.42;72.45
63202;DHT22;49296;48.188;11.566;2022-09-27T11:26:22;10.90;75.92
63202;DHT22;49296;48.188;11.566;2022-09-27T11:28:54;11.20;74.78
63202;DHT22;49296;48.188;11.566;2022-09-27T11:31:27;11.30;74.42
63202;DHT22;49296;48.188;11.566;2022-09-27T11:33:58;11.36;74.85
63202;DHT22;49296;48.188;11.566;2022-09-27T11:36:32;11.23;74.75
63202;DHT22;49296;48.188;11.566;2022-09-27T11:39:01;11.32;74.27
63202;DHT22;49296;48.188;11.566;2022-09-27T11:41:33;11.30;73.33
63202;DHT22;49296;48.188;11.566;2022-09-27T11:44:08;11.08;73.53
63202;DHT22;49296;48.188;11.566;2022-09-27T11:46:39;11.08;71.61
63202;DHT22;49296;48.188;11.566;2022-09-27T11:49:13;10.97;72.04
63202;DHT22;49296;48.188;11.566;2022-09-27T11:51:48;11.00;73.40
63202;DHT22;49296;48.188;11.566;2022-09-27T11:54:23;10.95;73.39
63202;DHT22;49296;48.188;11.566;2022-09-27T11:56:54;10.86;73.30
63202;DHT22;49296;48.188;11.566;2022-09-27T11:59:30;10.99;73.00
63202;DHT22;49296;48.188;11.566;2022-09-27T12:02:02;10.90;73.15
63202;DHT22;49296;48.188;11.566;2022-09-27T12:04:39;10.81;74.15
63202;DHT22;49296;48.188;11.566;2022-09-27T12:07:10;10.87;74.76
63202;DHT22;49296;48.188;11.566;2022-09-27T12:09:42;10.66;75.78
63202;DHT22;49296;48.188;11.566;2022-09-27T12:12:11;10.42;76.28
63202;DHT22;49296;48.188;11.566;2022-09-27T12:14:39;10.07;78.26
63202;DHT22;49296;48.188;11.566;2022-09-27T12:17:12;9.97;78.25
63202;DHT22;49296;48.188;11.566;2022-09-27T12:19:41;9.52;79.71
63202;DHT22;49296;48.188;11.566;2022-09-27T12:22:10;9.58;80.14
63202;DHT22;49296;48.188;11.566;2022-09-27T12:24:38;10.11;79.09
63202;DHT22;49296;48.188;11.566;2022-09-27T12:27:06;10.10;80.64
63202;DHT22;49296;48.188;11.566;2022-09-27T12:29:34;10.17;78.59
63202;DHT22;49296;48.188;11.566;2022-09-27T12:32:03;10.49;78.43
63202;DHT22;49296;48.188;11.566;2022-09-27T12:34:34;10.28;78.07
63202;DHT22;49296;48.188;11.566;2022-09-27T12:37:03;10.45;78.45
63202;DHT22;49296;48.188;11.566;2022-09-27T12:39:35;10.41;78.11
63202;DHT22;49296;48.188;11.566;2022-09-27T12:42:05;10.69;77.61
63202;DHT22;49296;48.188;11.566;2022-09-27T12:44:36;11.10;75.61
63202;DHT22;49296;48.188;11.566;2022-09-27T12:47:05;11.68;75.60
63202;DHT22;49296;48.188;11.566;2022-09-27T12:49:39;11.59;73.55
63202;DHT22;49296;48.188;11.566;2022-09-27T12:52:08;11.45;74.25
63202;DHT22;49296;48.188;11.566;2022-09-27T12:54:46;11.46;76.01
63202;DHT22;49296;48.188;11.566;2022-09-27T12:57:17;11.39;75.65
63202;DHT22;49296;48.188;11.566;2022-09-27T12:59:53;11.51;74.64
63202;DHT22;49296;48.188;11.566;2022-09-27T13:08:21;11.70;74.87
63202;DHT22;49296;48.188;11.566;2022-09-27T13:10:53;11.83;73.98
63202;DHT22;49296;48.188;11.566;2022-09-27T13:13:22;11.70;74.04
63202;DHT22;49296;48.188;11.566;2022-09-27T13:15:52;11.68;73.60
63202;DHT22;49296;48.188;11.566;2022-09-27T13:18:31;12.49;71.27
63202;DHT22;49296;48.188;11.566;2022-09-27T13:20:59;12.37;72.54
63202;DHT22;49296;48.188;11.566;2022-09-27T13:26:43;12.97;68.80
63202;DHT22;49296;48.188;11.566;2022-09-27T13:29:19;13.04;69.92
63202;DHT22;49296;48.188;11.566;2022-09-27T13:34:47;12.44;65.42
63202;DHT22;49296;48.188;11.566;2022-09-27T13:40:20;12.32;61.93
63202;DHT22;49296;48.188;11.566;2022-09-27T13:42:51;12.60;62.47
63202;DHT22;49296;48.188;11.566;2022-09-27T13:45:21;13.04;60.54
63202;DHT22;49296;48.188;11.566;2022-09-27T13:47:53;13.34;60.47
63202;DHT22;49296;48.188;11.566;2022-09-27T13:50:23;12.87;60.86
63202;DHT22;49296;48.188;11.566;2022-09-27T13:52:55;12.67;61.48
63202;DHT22;49296;48.188;11.566;2022-09-27T13:55:43;12.52;61.47
63202;DHT22;49296;48.188;11.566;2022-09-27T13:58:23;12.27;62.06
63202;DHT22;49296;48.188;11.566;2022-09-27T14:00:53;12.18;63.11
63202;DHT22;49296;48.188;11.566;2022-09-27T14:03:22;12.16;61.92
63202;DHT22;49296;48.188;11.566;2022-09-27T14:05:51;12.18;62.53
63202;DHT22;49296;48.188;11.566;2022-09-27T14:08:22;12.05;63.84
63202;DHT22;49296;48.188;11.566;2022-09-27T14:10:51;11.95;63.60
63202;DHT22;49296;48.188;11.566;2022-09-27T14:13:18;12.00;63.64
63202;DHT22;49296;48.188;11.566;2022-09-27T14:15:47;11.90;64.31
63202;DHT22;49296;48.188;11.566;2022-09-27T14:18:14;11.97;63.86
63202;DHT22;49296;48.188;11.566;2022-09-27T14:20:41;12.01;63.78
63202;DHT22;49296;48.188;11.566;2022-09-27T14:23:12;11.90;64.11
63202;DHT22;49296;48.188;11.566;2022-09-27T14:25:43;12.29;63.28
63202;DHT22;49296;48.188;11.566;2022-09-27T14:28:17;13.15;60.80
63202;DHT22;49296;48.188;11.566;2022-09-27T14:30:44;13.90;59.09
63202;DHT22;49296;48.188;11.566;2022-09-27T14:33:26;14.20;57.96
63202;DHT22;49296;48.188;11.566;2022-09-27T14:35:53;13.97;59.10
63202;DHT22;49296;48.188;11.566;2022-09-27T14:38:38;13.24;58.78
63202;DHT22;49296;48.188;11.566;2022-09-27T14:41:06;12.56;61.39
63202;DHT22;49296;48.188;11.566;2022-09-27T14:43:34;12.27;62.59
63202;DHT22;49296;48.188;11.566;2022-09-27T14:46:01;12.27;62.34
63202;DHT22;49296;48.188;11.566;2022-09-27T14:48:32;12.00;62.97
63202;DHT22;49296;48.188;11.566;2022-09-27T14:51:00;11.70;63.82
63202;DHT22;49296;48.188;11.566;2022-09-27T14:53:28;11.83;63.37
63202;DHT22;49296;48.188;11.566;2022-09-27T14:55:55;11.90;63.48
63202;DHT22;49296;48.188;11.566;2022-09-27T14:58:22;11.83;63.57
63202;DHT22;49296;48.188;11.566;2022-09-27T15:00:49;11.72;63.83
63202;DHT22;49296;48.188;11.566;2022-09-27T15:03:18;11.70;63.79
63202;DHT22;49296;48.188;11.566;2022-09-27T15:05:48;11.73;64.11
63202;DHT22;49296;48.188;11.566;2022-09-27T15:08:15;11.66;64.60
63202;DHT22;49296;48.188;11.566;2022-09-27T15:10:42;11.73;64.61
63202;DHT22;49296;48.188;11.566;2022-09-27T15:13:11;11.76;65.41
63202;DHT22;49296;48.188;11.566;2022-09-27T15:15:38;11.79;65.28
63202;DHT22;49296;48.188;11.566;2022-09-27T15:18:29;11.89;64.80
63202;DHT22;49296;48.188;11.566;2022-09-27T15:20:57;11.79;64.78
63202;DHT22;49296;48.188;11.566;2022-09-27T15:23:25;11.61;65.19
63202;DHT22;49296;48.188;11.566;2022-09-27T15:25:56;11.61;65.62
63202;DHT22;49296;48.188;11.566;2022-09-27T15:28:24;11.54;65.77
63202;DHT22;49296;48.188;11.566;2022-09-27T15:30:53;11.58;66.47
63202;DHT22;49296;48.188;11.566;2022-09-27T15:33:21;11.62;66.17
63202;DHT22;49296;48.188;11.566;2022-09-27T15:35:48;11.46;66.21
63202;DHT22;49296;48.188;11.566;2022-09-27T15:38:23;11.45;66.14
63202;DHT22;49296;48.188;11.566;2022-09-27T15:41:01;11.52;66.21
63202;DHT22;49296;48.188;11.566;2022-09-27T15:43:28;11.43;66.17
63202;DHT22;49296;48.188;11.566;2022-09-27T15:45:56;11.35;67.26